KOEB

Branch County Memorial Airport

Coldwater, Michigan, USA
METAR KOEB 181135Z AUTO 00000KT 10SM CLR M02/M02 A3050 RMK AO2 T10231023
Observed Flight Rules
Oct-18 @ 11:35 UTC (25 minutes ago) Visual Flight Rules
Visibility Clouds
10 miles
  • Clear skies
Temperatures Readings
Current -2°C / 28°F
Dewpoint -2°C / 28°F
Humidity 100%
Altimeter 30.5" Hg
Pressure 1033 hPa
Elevation 292
METAR KOEB 181135Z AUTO 00000KT 10SM CLR M02/M02 A3050 RMK AO2 T10231023
Observed Flight Rules
Oct-18 @ 11:35 UTC
(25 minutes ago)
VFR
Clouds
  • Clear skies
Temperature Dewpoint
-2°C / 28°F -2°C / 28°F
Humidity Altimeter Pressure
100% 30.5" Hg 1033 hPa